Kettle Falls, Washington
Current Conditions -  °F | °C
As of 4:00 PM on Friday 19 Dec 2014 (Local Time) from CYCG Reporting Station
Overcast Overcast  
Wind Chill:   Ceiling: 2600
Heat Index:   Visibility: 8mi
Dew Point:   Wind: 6mph
Humidity: 100%   Direction: 130°SE
Pressure: 29.91"   Gusts: NA
Location:  48.61°N, 118.06°W
Report Text: CYCG 200000Z 13005KT 100V170 8SM FEW003 FEW014 OVC026 03/03 A2991 RMK SF1SC1SC6 SLP145
Loading
Personal Weather Stations






























Interactive Weather Map New forecast layout! Learn more

10-Day Weather Forecast

Advertisements
Track Severe Weather on mobile